Time,TemperatureF,DewpointF,PressureIn,WindDirection,WindDirectionDegrees,WindSpeedMPH,WindSpeedGustMPH,Humidity,HourlyPrecipIn,Conditions,Clouds,dailyrainin,SoftwareType,DateUTC
2013-06-13 00:04:00,81.0,64.8,29.68,SW,225,3.5,6.0,58,0.00,,---,0.00,VWS V14.00,2013-06-13 05:04:00,
2013-06-13 00:09:00,80.8,64.6,29.68,WSW,248,5.8,5.8,58,0.00,,---,0.00,VWS V14.00,2013-06-13 05:09:00,
2013-06-13 00:14:00,80.8,64.6,29.68,WSW,248,8.3,8.3,58,0.00,,---,0.00,VWS V14.00,2013-06-13 05:14:00,
2013-06-13 00:20:00,80.8,65.1,29.68,South,180,8.6,8.6,59,0.00,,---,0.00,VWS V14.00,2013-06-13 05:20:00,
2013-06-13 00:25:00,80.6,65.4,29.68,ESE,112,4.1,4.9,60,0.00,,---,0.00,VWS V14.00,2013-06-13 05:25:00,
2013-06-13 00:30:00,80.6,65.4,29.68,SW,225,4.6,6.5,60,0.00,,---,0.00,VWS V14.00,2013-06-13 05:30:00,
2013-06-13 00:35:00,80.4,65.8,29.68,WSW,248,6.0,6.0,61,0.00,,---,0.00,VWS V14.00,2013-06-13 05:35:00,
2013-06-13 00:40:00,80.4,65.8,29.68,SW,225,4.1,4.1,61,0.00,,---,0.00,VWS V14.00,2013-06-13 05:40:00,
2013-06-13 00:46:00,80.4,66.2,29.68,WSW,248,8.0,8.0,62,0.00,,---,0.00,VWS V14.00,2013-06-13 05:46:00,
2013-06-13 00:51:00,80.2,66.5,29.68,WSW,248,4.1,8.7,63,0.00,,---,0.00,VWS V14.00,2013-06-13 05:51:00,
2013-06-13 00:56:00,80.2,66.1,29.68,SW,225,4.4,4.4,62,0.00,,---,0.00,VWS V14.00,2013-06-13 05:56:00,
2013-06-13 01:01:00,80.1,66.3,29.68,SW,225,3.5,5.4,63,0.00,,---,0.00,VWS V14.00,2013-06-13 06:01:00,
2013-06-13 01:06:00,79.9,66.2,29.68,WSW,248,4.6,4.6,63,0.00,,---,0.00,VWS V14.00,2013-06-13 06:06:00,
2013-06-13 01:12:00,79.9,66.2,29.68,SSW,202,5.5,5.5,63,0.00,,---,0.00,VWS V14.00,2013-06-13 06:12:00,
2013-06-13 01:18:00,79.7,66.0,29.68,South,180,6.3,6.3,63,0.00,,---,0.00,VWS V14.00,2013-06-13 06:18:00,
2013-06-13 01:23:00,79.7,66.5,29.68,SSE,158,4.9,4.9,64,0.00,,---,0.00,VWS V14.00,2013-06-13 06:23:00,
2013-06-13 01:29:00,79.7,66.5,29.68,WSW,248,5.5,6.3,64,0.00,,---,0.00,VWS V14.00,2013-06-13 06:29:00,
2013-06-13 01:34:00,79.7,66.9,29.68,WSW,248,4.9,8.5,65,0.00,,---,0.00,VWS V14.00,2013-06-13 06:34:00,
2013-06-13 01:39:00,79.7,66.9,29.68,WSW,248,5.8,5.8,65,0.00,,---,0.00,VWS V14.00,2013-06-13 06:39:00,
2013-06-13 01:44:00,79.5,66.7,29.68,WSW,248,4.4,4.4,65,0.00,,---,0.00,VWS V14.00,2013-06-13 06:44:00,
2013-06-13 01:49:00,79.5,67.2,29.68,SSW,202,3.0,3.0,66,0.00,,---,0.00,VWS V14.00,2013-06-13 06:49:00,
2013-06-13 01:54:00,79.5,67.2,29.68,West,270,4.1,4.1,66,0.00,,---,0.00,VWS V14.00,2013-06-13 06:54:00,
2013-06-13 02:00:00,79.3,67.0,29.68,SW,225,5.8,5.8,66,0.00,,---,0.00,VWS V14.00,2013-06-13 07:00:00,
2013-06-13 02:05:00,79.3,67.0,29.68,WSW,248,6.0,6.0,66,0.00,,---,0.00,VWS V14.00,2013-06-13 07:05:00,
2013-06-13 02:11:00,79.3,67.4,29.68,SSE,158,4.6,4.6,67,0.00,,---,0.00,VWS V14.00,2013-06-13 07:11:00,
2013-06-13 02:16:00,79.2,67.3,29.68,WSW,248,4.1,4.1,67,0.00,,---,0.00,VWS V14.00,2013-06-13 07:16:00,
2013-06-13 02:22:00,79.2,67.3,29.68,SW,225,4.9,4.9,67,0.00,,---,0.00,VWS V14.00,2013-06-13 07:22:00,
2013-06-13 02:27:00,79.2,67.3,29.68,WSW,248,3.8,6.5,67,0.00,,---,0.00,VWS V14.00,2013-06-13 07:27:00,
2013-06-13 02:32:00,79.2,67.3,29.71,SW,225,6.3,6.3,67,0.00,,---,0.00,VWS V14.00,2013-06-13 07:32:00,
2013-06-13 02:37:00,79.2,67.3,29.71,SSW,202,3.5,3.5,67,0.00,,---,0.00,VWS V14.00,2013-06-13 07:37:00,
2013-06-13 02:42:00,79.2,67.7,29.71,SW,225,5.8,5.8,68,0.00,,---,0.00,VWS V14.00,2013-06-13 07:42:00,
2013-06-13 02:47:00,79.2,67.7,29.68,WSW,248,3.8,3.8,68,0.00,,---,0.00,VWS V14.00,2013-06-13 07:47:00,
2013-06-13 02:52:00,79.2,67.7,29.68,WSW,248,4.1,4.1,68,0.00,,---,0.00,VWS V14.00,2013-06-13 07:52:00,
2013-06-13 02:57:00,79.2,67.7,29.68,SW,225,4.6,4.6,68,0.00,,---,0.00,VWS V14.00,2013-06-13 07:57:00,
2013-06-13 03:02:00,79.0,67.5,29.68,SSW,202,5.2,5.2,68,0.00,,---,0.00,VWS V14.00,2013-06-13 08:02:00,
2013-06-13 03:08:00,79.0,67.5,29.68,SW,225,3.5,5.8,68,0.00,,---,0.00,VWS V14.00,2013-06-13 08:08:00,
2013-06-13 03:13:00,79.0,67.5,29.68,WSW,248,5.5,5.5,68,0.00,,---,0.00,VWS V14.00,2013-06-13 08:13:00,
2013-06-13 03:18:00,79.0,67.9,29.68,SE,135,4.6,4.6,69,0.00,,---,0.00,VWS V14.00,2013-06-13 08:18:00,
2013-06-13 03:23:00,79.0,67.9,29.68,WSW,248,4.6,5.4,69,0.00,,---,0.00,VWS V14.00,2013-06-13 08:23:00,
2013-06-13 03:29:00,79.0,67.9,29.68,SW,225,4.1,4.1,69,0.00,,---,0.00,VWS V14.00,2013-06-13 08:29:00,
2013-06-13 03:34:00,79.0,67.9,29.68,WSW,248,3.5,6.3,69,0.00,,---,0.00,VWS V14.00,2013-06-13 08:34:00,
2013-06-13 03:39:00,79.2,68.1,29.68,SSE,158,4.1,4.3,69,0.00,,---,0.00,VWS V14.00,2013-06-13 08:39:00,
2013-06-13 03:44:00,79.2,68.1,29.68,NW,315,6.0,6.0,69,0.00,,---,0.00,VWS V14.00,2013-06-13 08:44:00,
2013-06-13 03:49:00,79.2,68.1,29.68,West,270,4.1,4.1,69,0.00,,---,0.00,VWS V14.00,2013-06-13 08:49:00,
2013-06-13 03:54:00,79.2,68.1,29.68,NW,315,7.2,7.2,69,0.00,,---,0.00,VWS V14.00,2013-06-13 08:54:00,
2013-06-13 03:59:00,79.0,67.9,29.68,NNE,22,4.9,5.4,69,0.00,,---,0.00,VWS V14.00,2013-06-13 08:59:00,
2013-06-13 04:04:00,79.0,67.9,29.68,WSW,248,4.6,4.6,69,0.00,,---,0.00,VWS V14.00,2013-06-13 09:04:00,
2013-06-13 04:09:00,78.8,67.8,29.68,SW,225,4.1,6.3,69,0.00,,---,0.00,VWS V14.00,2013-06-13 09:09:00,
2013-06-13 04:14:00,78.6,68.0,29.68,WSW,248,4.9,4.9,70,0.00,,---,0.00,VWS V14.00,2013-06-13 09:14:00,
2013-06-13 04:19:00,78.6,68.0,29.68,SSW,202,4.9,4.9,70,0.00,,---,0.00,VWS V14.00,2013-06-13 09:19:00,
2013-06-13 04:24:00,78.4,67.8,29.68,West,270,3.5,3.5,70,0.00,,---,0.00,VWS V14.00,2013-06-13 09:24:00,
2013-06-13 04:29:00,78.4,67.8,29.68,West,270,5.5,5.5,70,0.00,,---,0.00,VWS V14.00,2013-06-13 09:29:00,
2013-06-13 04:34:00,78.3,68.1,29.68,SW,225,4.4,4.4,71,0.00,,---,0.00,VWS V14.00,2013-06-13 09:34:00,
2013-06-13 04:39:00,78.3,68.1,29.68,West,270,3.8,4.7,71,0.00,,---,0.00,VWS V14.00,2013-06-13 09:39:00,
2013-06-13 04:44:00,78.1,67.9,29.68,WSW,248,5.8,8.7,71,0.00,,---,0.00,VWS V14.00,2013-06-13 09:44:00,
2013-06-13 04:49:00,78.1,67.9,29.68,SW,225,8.0,8.0,71,0.00,,---,0.00,VWS V14.00,2013-06-13 09:49:00,
2013-06-13 04:54:00,78.1,68.3,29.68,WSW,248,6.0,6.0,72,0.00,,---,0.00,VWS V14.00,2013-06-13 09:54:00,
2013-06-13 05:00:00,77.9,68.2,29.68,SW,225,5.2,5.2,72,0.00,,---,0.00,VWS V14.00,2013-06-13 10:00:00,
2013-06-13 05:04:00,77.9,68.2,29.68,SW,225,8.8,8.8,72,0.00,,---,0.00,VWS V14.00,2013-06-13 10:04:00,
2013-06-13 05:09:00,77.9,68.2,29.68,West,270,4.6,4.9,72,0.00,,---,0.00,VWS V14.00,2013-06-13 10:09:00,
2013-06-13 05:14:00,77.9,68.6,29.68,WSW,248,3.5,4.0,73,0.00,,---,0.00,VWS V14.00,2013-06-13 10:14:00,
2013-06-13 05:19:00,77.7,68.4,29.68,West,270,4.1,4.1,73,0.00,,---,0.00,VWS V14.00,2013-06-13 10:19:00,
2013-06-13 05:24:00,77.7,68.4,29.68,SSW,202,3.0,4.3,73,0.00,,---,0.00,VWS V14.00,2013-06-13 10:24:00,
2013-06-13 05:29:00,77.5,68.2,29.68,WSW,248,2.4,4.0,73,0.00,,---,0.00,VWS V14.00,2013-06-13 10:29:00,
2013-06-13 05:34:00,77.5,68.2,29.68,WSW,248,4.9,4.9,73,0.00,,---,0.00,VWS V14.00,2013-06-13 10:34:00,
2013-06-13 05:39:00,77.5,68.2,29.68,SW,225,4.6,4.6,73,0.00,,---,0.00,VWS V14.00,2013-06-13 10:39:00,
2013-06-13 05:44:00,77.5,68.2,29.68,WSW,248,10.8,10.8,73,0.00,,---,0.00,VWS V14.00,2013-06-13 10:44:00,
2013-06-13 05:49:00,77.5,68.6,29.68,SSE,158,4.6,4.6,74,0.00,,---,0.00,VWS V14.00,2013-06-13 10:49:00,
2013-06-13 05:54:00,77.5,68.6,29.68,NW,315,3.0,5.4,74,0.00,,---,0.00,VWS V14.00,2013-06-13 10:54:00,
2013-06-13 06:00:00,77.5,68.6,29.68,WNW,292,4.4,4.4,74,0.00,,---,0.00,VWS V14.00,2013-06-13 11:00:00,
2013-06-13 06:05:00,77.5,68.6,29.68,WSW,248,3.0,3.0,74,0.00,,---,0.00,VWS V14.00,2013-06-13 11:05:00,
2013-06-13 06:10:00,77.7,68.8,29.68,West,270,3.0,5.6,74,0.00,,---,0.00,VWS V14.00,2013-06-13 11:10:00,
2013-06-13 06:15:00,77.7,68.8,29.68,NW,315,3.0,3.0,74,0.00,,---,0.00,VWS V14.00,2013-06-13 11:15:00,
2013-06-13 06:21:00,77.9,68.9,29.68,WSW,248,4.9,4.9,74,0.00,,---,0.00,VWS V14.00,2013-06-13 11:21:00,
2013-06-13 06:27:00,78.1,69.1,29.68,North,0,4.6,4.6,74,0.00,,---,0.00,VWS V14.00,2013-06-13 11:27:00,
2013-06-13 06:32:00,78.3,69.3,29.68,WSW,248,5.2,5.2,74,0.00,,---,0.00,VWS V14.00,2013-06-13 11:32:00,
2013-06-13 06:37:00,78.4,69.5,29.71,WNW,292,3.5,7.8,74,0.00,,---,0.00,VWS V14.00,2013-06-13 11:37:00,
2013-06-13 06:42:00,78.6,69.7,29.71,WSW,248,5.8,5.8,74,0.00,,---,0.00,VWS V14.00,2013-06-13 11:42:00,
2013-06-13 06:48:00,78.8,69.8,29.71,NW,315,4.6,4.6,74,0.00,,---,0.00,VWS V14.00,2013-06-13 11:48:00,
2013-06-13 06:54:00,79.2,69.8,29.71,WSW,248,2.4,2.4,73,0.00,,---,0.00,VWS V14.00,2013-06-13 11:54:00,
2013-06-13 06:59:00,79.2,69.8,29.71,NW,315,4.6,4.6,73,0.00,,---,0.00,VWS V14.00,2013-06-13 11:59:00,
2013-06-13 07:04:00,79.5,70.1,29.71,WNW,292,5.8,5.8,73,0.00,,---,0.00,VWS V14.00,2013-06-13 12:04:00,
2013-06-13 07:09:00,79.7,69.9,29.71,West,270,5.2,5.2,72,0.00,,---,0.00,VWS V14.00,2013-06-13 12:09:00,
2013-06-13 07:14:00,80.1,70.2,29.71,NW,315,5.8,6.5,72,0.00,,---,0.00,VWS V14.00,2013-06-13 12:14:00,
2013-06-13 07:19:00,80.2,70.4,29.71,WSW,248,5.5,5.5,72,0.00,,---,0.00,VWS V14.00,2013-06-13 12:19:00,
2013-06-13 07:24:00,80.4,70.2,29.71,WNW,292,4.9,4.9,71,0.00,,---,0.00,VWS V14.00,2013-06-13 12:24:00,
2013-06-13 07:29:00,80.6,69.9,29.71,SW,225,7.7,7.7,70,0.00,,---,0.00,VWS V14.00,2013-06-13 12:29:00,
2013-06-13 07:34:00,80.8,70.1,29.68,NNW,338,3.5,3.8,70,0.00,,---,0.00,VWS V14.00,2013-06-13 12:34:00,
2013-06-13 07:39:00,81.0,69.8,29.68,SSW,202,8.6,8.6,69,0.00,,---,0.00,VWS V14.00,2013-06-13 12:39:00,
2013-06-13 07:44:00,81.3,70.2,29.68,WSW,248,7.7,7.7,69,0.00,,---,0.00,VWS V14.00,2013-06-13 12:44:00,
2013-06-13 07:49:00,81.5,69.9,29.68,NW,315,8.6,8.6,68,0.00,,---,0.00,VWS V14.00,2013-06-13 12:49:00,
2013-06-13 07:55:00,81.7,70.1,29.68,WSW,248,5.2,5.4,68,0.00,,---,0.00,VWS V14.00,2013-06-13 12:55:00,
2013-06-13 08:00:00,82.2,70.2,29.68,WNW,292,5.5,6.0,67,0.00,,---,0.00,VWS V14.00,2013-06-13 13:00:00,
2013-06-13 08:05:00,82.6,70.5,29.71,WSW,248,5.5,6.0,67,0.00,,---,0.00,VWS V14.00,2013-06-13 13:05:00,
2013-06-13 08:10:00,82.8,69.8,29.71,WNW,292,8.8,8.8,65,0.00,,---,0.00,VWS V14.00,2013-06-13 13:10:00,
2013-06-13 08:16:00,82.9,70.0,29.71,WNW,292,3.5,5.8,65,0.00,,---,0.00,VWS V14.00,2013-06-13 13:16:00,
2013-06-13 08:21:00,83.3,69.9,29.71,NW,315,11.6,11.6,64,0.00,,---,0.00,VWS V14.00,2013-06-13 13:21:00,
2013-06-13 08:27:00,83.5,70.0,29.71,NW,315,6.9,6.9,64,0.00,,---,0.00,VWS V14.00,2013-06-13 13:27:00,
2013-06-13 08:33:00,83.7,69.7,29.71,West,270,8.6,8.6,63,0.00,,---,0.00,VWS V14.00,2013-06-13 13:33:00,
2013-06-13 08:38:00,83.8,69.9,29.71,SW,225,6.3,8.1,63,0.00,,---,0.00,VWS V14.00,2013-06-13 13:38:00,
2013-06-13 08:43:00,83.8,69.9,29.71,SW,225,6.3,9.8,63,0.00,,---,0.00,VWS V14.00,2013-06-13 13:43:00,
2013-06-13 08:48:00,84.0,70.1,29.71,WSW,248,4.9,4.9,63,0.00,,---,0.00,VWS V14.00,2013-06-13 13:48:00,
2013-06-13 08:54:00,84.4,69.9,29.71,NNW,338,5.5,6.5,62,0.00,,---,0.00,VWS V14.00,2013-06-13 13:54:00,
2013-06-13 08:59:00,84.6,69.6,29.71,SW,225,5.5,6.3,61,0.00,,---,0.00,VWS V14.00,2013-06-13 13:59:00,
2013-06-13 09:04:00,84.7,69.8,29.71,NW,315,8.3,8.3,61,0.00,,---,0.00,VWS V14.00,2013-06-13 14:04:00,
2013-06-13 09:10:00,84.9,70.0,29.71,NNW,338,4.4,5.6,61,0.00,,---,0.00,VWS V14.00,2013-06-13 14:10:00,
2013-06-13 09:15:00,85.3,70.8,29.71,West,270,3.5,3.8,62,0.00,,---,0.00,VWS V14.00,2013-06-13 14:15:00,
2013-06-13 09:20:00,85.5,70.5,29.71,SSW,202,4.4,4.4,61,0.00,,---,0.00,VWS V14.00,2013-06-13 14:20:00,
2013-06-13 09:25:00,85.6,70.2,29.71,NW,315,4.6,5.6,60,0.00,,---,0.00,VWS V14.00,2013-06-13 14:25:00,
2013-06-13 09:30:00,85.6,69.7,29.71,NW,315,8.0,8.0,59,0.00,,---,0.00,VWS V14.00,2013-06-13 14:30:00,
2013-06-13 09:35:00,85.8,69.3,29.71,NW,315,6.0,8.7,58,0.00,,---,0.00,VWS V14.00,2013-06-13 14:35:00,
2013-06-13 09:40:00,85.8,68.8,29.71,North,0,7.7,7.7,57,0.00,,---,0.00,VWS V14.00,2013-06-13 14:40:00,
2013-06-13 09:45:00,85.8,69.3,29.71,NW,315,4.6,5.4,58,0.00,,---,0.00,VWS V14.00,2013-06-13 14:45:00,
2013-06-13 09:50:00,86.2,68.7,29.71,NW,315,4.1,10.1,56,0.00,,---,0.00,VWS V14.00,2013-06-13 14:50:00,
2013-06-13 09:55:00,86.2,68.7,29.71,North,0,4.1,7.2,56,0.00,,---,0.00,VWS V14.00,2013-06-13 14:55:00,
2013-06-13 10:00:00,86.2,68.7,29.71,SE,135,4.4,6.5,56,0.00,,---,0.00,VWS V14.00,2013-06-13 15:00:00,
2013-06-13 10:05:00,86.4,67.8,29.71,West,270,10.8,10.8,54,0.00,,---,0.00,VWS V14.00,2013-06-13 15:05:00,
2013-06-13 10:10:00,86.2,67.1,29.71,North,0,8.0,8.0,53,0.00,,---,0.00,VWS V14.00,2013-06-13 15:10:00,
2013-06-13 10:15:00,86.4,67.8,29.71,WSW,248,5.8,5.8,54,0.00,,---,0.00,VWS V14.00,2013-06-13 15:15:00,
2013-06-13 10:20:00,86.7,68.1,29.71,WNW,292,8.8,8.8,54,0.00,,---,0.00,VWS V14.00,2013-06-13 15:20:00,
2013-06-13 10:26:00,86.9,68.3,29.71,NNE,22,8.3,8.3,54,0.00,,---,0.00,VWS V14.00,2013-06-13 15:26:00,
2013-06-13 10:31:00,87.1,67.3,29.71,West,270,4.1,4.3,52,0.00,,---,0.00,VWS V14.00,2013-06-13 15:31:00,
2013-06-13 10:36:00,86.9,66.0,29.71,WNW,292,8.0,8.0,50,0.00,,---,0.00,VWS V14.00,2013-06-13 15:36:00,
2013-06-13 10:41:00,87.1,66.8,29.71,NNW,338,6.3,6.3,51,0.00,,---,0.00,VWS V14.00,2013-06-13 15:41:00,
2013-06-13 10:46:00,87.1,65.6,29.71,SW,225,13.6,13.6,49,0.00,,---,0.00,VWS V14.00,2013-06-13 15:46:00,
2013-06-13 10:51:00,87.3,64.6,29.71,WNW,292,11.9,11.9,47,0.00,,---,0.00,VWS V14.00,2013-06-13 15:51:00,
2013-06-13 10:57:00,87.3,60.0,29.71,North,0,6.0,9.8,40,0.00,,---,0.00,VWS V14.00,2013-06-13 15:57:00,
2013-06-13 11:02:00,87.1,61.2,29.71,NNE,22,5.5,5.5,42,0.00,,---,0.00,VWS V14.00,2013-06-13 16:02:00,
2013-06-13 11:07:00,87.3,61.4,29.71,NNW,338,6.0,7.6,42,0.00,,---,0.00,VWS V14.00,2013-06-13 16:07:00,
2013-06-13 11:12:00,87.4,62.2,29.71,NE,45,5.2,5.8,43,0.00,,---,0.00,VWS V14.00,2013-06-13 16:12:00,
2013-06-13 11:17:00,87.6,61.7,29.71,NE,45,5.2,5.6,42,0.00,,---,0.00,VWS V14.00,2013-06-13 16:17:00,
2013-06-13 11:22:00,87.8,61.9,29.71,WNW,292,9.1,9.1,42,0.00,,---,0.00,VWS V14.00,2013-06-13 16:22:00,
2013-06-13 11:27:00,88.2,61.5,29.71,NW,315,8.6,8.6,41,0.00,,---,0.00,VWS V14.00,2013-06-13 16:27:00,
2013-06-13 11:32:00,88.3,61.0,29.71,NW,315,13.0,13.0,40,0.00,,---,0.00,VWS V14.00,2013-06-13 16:32:00,
2013-06-13 11:37:00,88.5,61.8,29.71,North,0,10.5,10.5,41,0.00,,---,0.00,VWS V14.00,2013-06-13 16:37:00,
2013-06-13 11:42:00,88.7,63.3,29.71,NNW,338,14.1,14.1,43,0.00,,---,0.00,VWS V14.00,2013-06-13 16:42:00,
2013-06-13 11:47:00,88.7,60.6,29.74,NW,315,10.5,10.5,39,0.00,,---,0.00,VWS V14.00,2013-06-13 16:47:00,
2013-06-13 11:52:00,88.3,60.3,29.74,North,0,13.6,13.6,39,0.00,,---,0.00,VWS V14.00,2013-06-13 16:52:00,
2013-06-13 11:58:00,88.3,60.3,29.74,WNW,292,6.3,6.3,39,0.00,,---,0.00,VWS V14.00,2013-06-13 16:58:00,
2013-06-13 12:03:00,88.3,60.3,29.74,NNW,338,10.8,10.8,39,0.00,,---,0.00,VWS V14.00,2013-06-13 17:03:00,
2013-06-13 12:09:00,88.3,59.5,29.74,North,0,7.7,8.1,38,0.00,,---,0.00,VWS V14.00,2013-06-13 17:09:00,
2013-06-13 12:14:00,88.3,59.5,29.74,NNW,338,8.0,8.0,38,0.00,,---,0.00,VWS V14.00,2013-06-13 17:14:00,
2013-06-13 12:19:00,88.2,57.9,29.74,North,0,11.1,11.1,36,0.00,,---,0.00,VWS V14.00,2013-06-13 17:19:00,
2013-06-13 12:24:00,88.5,59.7,29.74,North,0,5.8,6.5,38,0.00,,---,0.00,VWS V14.00,2013-06-13 17:24:00,
2013-06-13 12:29:00,88.7,58.3,29.74,NW,315,13.3,13.3,36,0.00,,---,0.00,VWS V14.00,2013-06-13 17:29:00,
2013-06-13 12:34:00,88.2,57.9,29.74,NNW,338,8.8,10.7,36,0.00,,---,0.00,VWS V14.00,2013-06-13 17:34:00,
2013-06-13 12:39:00,88.2,57.9,29.74,North,0,10.8,10.8,36,0.00,,---,0.00,VWS V14.00,2013-06-13 17:39:00,
2013-06-13 12:44:00,88.3,59.5,29.74,North,0,5.8,7.4,38,0.00,,---,0.00,VWS V14.00,2013-06-13 17:44:00,
2013-06-13 12:49:00,88.3,59.5,29.74,North,0,11.1,11.1,38,0.00,,---,0.00,VWS V14.00,2013-06-13 17:49:00,
2013-06-13 12:54:00,88.2,57.1,29.74,North,0,8.6,10.1,35,0.00,,---,0.00,VWS V14.00,2013-06-13 17:54:00,
2013-06-13 13:00:00,88.0,56.9,29.74,NNW,338,11.9,11.9,35,0.00,,---,0.00,VWS V14.00,2013-06-13 18:00:00,
2013-06-13 13:04:00,88.2,58.6,29.74,NNE,22,8.0,8.1,37,0.00,,---,0.00,VWS V14.00,2013-06-13 18:04:00,
2013-06-13 13:09:00,88.3,58.8,29.74,North,0,8.0,8.7,37,0.00,,---,0.00,VWS V14.00,2013-06-13 18:09:00,
2013-06-13 13:15:00,88.5,59.7,29.74,North,0,7.7,7.7,38,0.00,,---,0.00,VWS V14.00,2013-06-13 18:15:00,
2013-06-13 13:20:00,88.9,60.8,29.74,SSW,202,2.7,3.1,39,0.00,,---,0.00,VWS V14.00,2013-06-13 18:20:00,
2013-06-13 13:26:00,88.7,57.6,29.74,NW,315,6.0,10.1,35,0.00,,---,0.00,VWS V14.00,2013-06-13 18:26:00,
2013-06-13 13:32:00,88.5,59.0,29.74,NW,315,6.0,6.0,37,0.00,,---,0.00,VWS V14.00,2013-06-13 18:32:00,
2013-06-13 13:38:00,88.7,58.3,29.74,North,0,10.0,10.0,36,0.00,,---,0.00,VWS V14.00,2013-06-13 18:38:00,
2013-06-13 13:43:00,88.5,59.0,29.74,NNE,22,5.8,6.5,37,0.00,,---,0.00,VWS V14.00,2013-06-13 18:43:00,
2013-06-13 13:48:00,88.5,59.7,29.74,North,0,7.7,7.7,38,0.00,,---,0.00,VWS V14.00,2013-06-13 18:48:00,
2013-06-13 13:54:00,88.7,57.6,29.74,North,0,13.0,13.0,35,0.00,,---,0.00,VWS V14.00,2013-06-13 18:54:00,
2013-06-13 14:00:00,88.2,56.3,29.74,North,0,9.1,9.1,34,0.00,,---,0.00,VWS V14.00,2013-06-13 19:00:00,
2013-06-13 14:05:00,88.2,56.3,29.74,North,0,11.9,11.9,34,0.00,,---,0.00,VWS V14.00,2013-06-13 19:05:00,
2013-06-13 14:10:00,88.2,57.1,29.74,NNW,338,5.2,8.5,35,0.00,,---,0.00,VWS V14.00,2013-06-13 19:10:00,
2013-06-13 14:15:00,88.2,57.9,29.74,NNE,22,10.2,10.2,36,0.00,,---,0.00,VWS V14.00,2013-06-13 19:15:00,
2013-06-13 14:20:00,88.2,57.1,29.74,North,0,10.5,10.5,35,0.00,,---,0.00,VWS V14.00,2013-06-13 19:20:00,
2013-06-13 14:25:00,88.2,57.9,29.74,NE,45,5.2,9.6,36,0.00,,---,0.00,VWS V14.00,2013-06-13 19:25:00,
2013-06-13 14:30:00,88.2,57.9,29.74,West,270,5.2,6.0,36,0.00,,---,0.00,VWS V14.00,2013-06-13 19:30:00,
2013-06-13 14:35:00,88.3,58.8,29.74,North,0,13.0,13.0,37,0.00,,---,0.00,VWS V14.00,2013-06-13 19:35:00,
2013-06-13 14:40:00,88.3,57.2,29.74,NNE,22,13.9,13.9,35,0.00,,---,0.00,VWS V14.00,2013-06-13 19:40:00,
2013-06-13 14:45:00,88.2,57.9,29.74,North,0,10.5,10.5,36,0.00,,---,0.00,VWS V14.00,2013-06-13 19:45:00,
2013-06-13 14:50:00,88.0,58.5,29.74,NNE,22,10.5,10.5,37,0.00,,---,0.00,VWS V14.00,2013-06-13 19:50:00,
2013-06-13 14:55:00,88.0,59.2,29.74,NNW,338,4.4,5.6,38,0.00,,---,0.00,VWS V14.00,2013-06-13 19:55:00,
2013-06-13 15:01:00,88.2,58.6,29.74,NNW,338,11.9,11.9,37,0.00,,---,0.00,VWS V14.00,2013-06-13 20:01:00,
2013-06-13 15:06:00,88.0,57.7,29.74,North,0,5.8,5.8,36,0.00,,---,0.00,VWS V14.00,2013-06-13 20:06:00,
2013-06-13 15:11:00,88.0,57.7,29.74,North,0,8.0,8.0,36,0.00,,---,0.00,VWS V14.00,2013-06-13 20:11:00,
2013-06-13 15:16:00,88.0,59.2,29.74,NNE,22,8.3,8.3,38,0.00,,---,0.00,VWS V14.00,2013-06-13 20:16:00,
2013-06-13 15:21:00,88.3,58.8,29.74,North,0,5.2,6.5,37,0.00,,---,0.00,VWS V14.00,2013-06-13 20:21:00,
2013-06-13 15:26:00,88.0,59.2,29.74,North,0,5.2,6.0,38,0.00,,---,0.00,VWS V14.00,2013-06-13 20:26:00,
2013-06-13 15:32:00,87.8,58.3,29.74,NNE,22,7.7,7.7,37,0.00,,---,0.00,VWS V14.00,2013-06-13 20:32:00,
2013-06-13 15:37:00,88.0,59.2,29.74,NW,315,6.0,6.0,38,0.00,,---,0.00,VWS V14.00,2013-06-13 20:37:00,
2013-06-13 15:42:00,88.5,59.7,29.74,NW,315,5.2,5.6,38,0.00,,---,0.00,VWS V14.00,2013-06-13 20:42:00,
2013-06-13 15:48:00,88.7,59.9,29.74,North,0,7.2,7.2,38,0.00,,---,0.00,VWS V14.00,2013-06-13 20:48:00,
2013-06-13 15:54:00,88.2,58.6,29.74,NNW,338,4.4,4.4,37,0.00,,---,0.00,VWS V14.00,2013-06-13 20:54:00,
2013-06-13 16:00:00,88.0,59.2,29.74,NW,315,5.2,5.2,38,0.00,,---,0.00,VWS V14.00,2013-06-13 21:00:00,
2013-06-13 16:05:00,87.4,58.7,29.74,North,0,8.3,8.3,38,0.00,,---,0.00,VWS V14.00,2013-06-13 21:05:00,
2013-06-13 16:11:00,87.4,58.7,29.74,NNW,338,5.2,5.2,38,0.00,,---,0.00,VWS V14.00,2013-06-13 21:11:00,
2013-06-13 16:16:00,87.1,58.4,29.71,NNE,22,5.2,5.2,38,0.00,,---,0.00,VWS V14.00,2013-06-13 21:16:00,
2013-06-13 16:21:00,87.1,58.4,29.71,NNE,22,10.8,10.8,38,0.00,,---,0.00,VWS V14.00,2013-06-13 21:21:00,
2013-06-13 16:26:00,87.1,59.2,29.71,NW,315,3.8,3.8,39,0.00,,---,0.00,VWS V14.00,2013-06-13 21:26:00,
2013-06-13 16:31:00,87.4,58.7,29.71,NW,315,2.7,2.7,38,0.00,,---,0.00,VWS V14.00,2013-06-13 21:31:00,
2013-06-13 16:36:00,87.3,58.6,29.71,North,0,5.8,9.2,38,0.00,,---,0.00,VWS V14.00,2013-06-13 21:36:00,
2013-06-13 16:42:00,86.9,58.3,29.71,North,0,3.5,3.5,38,0.00,,---,0.00,VWS V14.00,2013-06-13 21:42:00,
2013-06-13 16:47:00,87.1,58.4,29.71,NNW,338,7.7,9.6,38,0.00,,---,0.00,VWS V14.00,2013-06-13 21:47:00,
2013-06-13 16:52:00,87.1,58.4,29.71,NE,45,8.8,8.8,38,0.00,,---,0.00,VWS V14.00,2013-06-13 21:52:00,
2013-06-13 16:57:00,87.3,59.3,29.71,North,0,4.6,4.6,39,0.00,,---,0.00,VWS V14.00,2013-06-13 21:57:00,
2013-06-13 17:03:00,87.3,58.6,29.71,North,0,8.8,8.8,38,0.00,,---,0.00,VWS V14.00,2013-06-13 22:03:00,
2013-06-13 17:08:00,87.4,58.7,29.71,SSW,202,4.6,4.7,38,0.00,,---,0.00,VWS V14.00,2013-06-13 22:08:00,
2013-06-13 17:14:00,87.4,58.7,29.71,ESE,112,4.6,4.6,38,0.00,,---,0.00,VWS V14.00,2013-06-13 22:14:00,
2013-06-13 17:19:00,87.3,58.6,29.71,West,270,6.0,6.0,38,0.00,,---,0.00,VWS V14.00,2013-06-13 22:19:00,
2013-06-13 17:24:00,87.1,58.4,29.71,NW,315,9.1,9.1,38,0.00,,---,0.00,VWS V14.00,2013-06-13 22:24:00,
2013-06-13 17:29:00,87.1,58.4,29.71,WSW,248,4.1,6.3,38,0.00,,---,0.00,VWS V14.00,2013-06-13 22:29:00,
2013-06-13 17:34:00,87.3,58.6,29.71,North,0,4.9,4.9,38,0.00,,---,0.00,VWS V14.00,2013-06-13 22:34:00,
2013-06-13 17:39:00,87.1,58.4,29.71,NNE,22,7.2,7.2,38,0.00,,---,0.00,VWS V14.00,2013-06-13 22:39:00,
2013-06-13 17:44:00,86.7,58.1,29.71,NW,315,6.3,6.3,38,0.00,,---,0.00,VWS V14.00,2013-06-13 22:44:00,
2013-06-13 17:49:00,86.9,59.0,29.71,North,0,2.4,2.7,39,0.00,,---,0.00,VWS V14.00,2013-06-13 22:49:00,
2013-06-13 17:54:00,86.9,58.3,29.71,NE,45,5.2,5.2,38,0.00,,---,0.00,VWS V14.00,2013-06-13 22:54:00,
2013-06-13 17:59:00,86.9,59.0,29.71,WNW,292,4.9,4.9,39,0.00,,---,0.00,VWS V14.00,2013-06-13 22:59:00,
2013-06-13 18:05:00,86.5,58.7,29.71,NNW,338,8.0,8.0,39,0.00,,---,0.00,VWS V14.00,2013-06-13 23:05:00,
2013-06-13 18:10:00,86.4,58.5,29.71,WNW,292,4.6,4.6,39,0.00,,---,0.00,VWS V14.00,2013-06-13 23:10:00,
2013-06-13 18:15:00,86.2,58.3,29.71,South,180,8.8,8.8,39,0.00,,---,0.00,VWS V14.00,2013-06-13 23:15:00,
2013-06-13 18:20:00,85.8,58.7,29.71,NW,315,5.8,5.8,40,0.00,,---,0.00,VWS V14.00,2013-06-13 23:20:00,
2013-06-13 18:25:00,85.6,58.6,29.71,East,90,4.4,4.4,40,0.00,,---,0.00,VWS V14.00,2013-06-13 23:25:00,
2013-06-13 18:30:00,85.1,58.1,29.71,South,180,3.0,4.0,40,0.00,,---,0.00,VWS V14.00,2013-06-13 23:30:00,
2013-06-13 18:35:00,84.4,57.5,29.71,NW,315,5.8,5.8,40,0.00,,---,0.00,VWS V14.00,2013-06-13 23:35:00,
2013-06-13 18:41:00,84.6,58.3,29.71,NNW,338,4.6,4.6,41,0.00,,---,0.00,VWS V14.00,2013-06-13 23:41:00,
2013-06-13 18:46:00,84.6,58.3,29.71,NNW,338,6.0,6.0,41,0.00,,---,0.00,VWS V14.00,2013-06-13 23:46:00,
2013-06-13 18:51:00,84.4,58.1,29.71,North,0,9.1,9.1,41,0.00,,---,0.00,VWS V14.00,2013-06-13 23:51:00,
2013-06-13 18:56:00,84.4,58.1,29.71,NW,315,5.8,6.3,41,0.00,,---,0.00,VWS V14.00,2013-06-13 23:56:00,
2013-06-13 19:01:00,84.2,57.3,29.74,North,0,7.2,7.2,40,0.00,,---,0.00,VWS V14.00,2013-06-14 00:01:00,
2013-06-13 19:07:00,84.2,57.3,29.74,WNW,292,4.9,7.8,40,0.00,,---,0.00,VWS V14.00,2013-06-14 00:07:00,
2013-06-13 19:12:00,84.2,57.3,29.74,South,180,2.4,2.9,40,0.00,,---,0.00,VWS V14.00,2013-06-14 00:12:00,
2013-06-13 19:17:00,84.4,56.7,29.74,NNW,338,4.9,5.4,39,0.00,,---,0.00,VWS V14.00,2013-06-14 00:17:00,
2013-06-13 19:22:00,84.4,56.7,29.74,NNW,338,4.4,6.3,39,0.00,,---,0.00,VWS V14.00,2013-06-14 00:22:00,
2013-06-13 19:28:00,84.2,56.6,29.74,NNW,338,4.9,4.9,39,0.00,,---,0.00,VWS V14.00,2013-06-14 00:28:00,
2013-06-13 19:33:00,84.4,56.7,29.74,NW,315,5.2,5.8,39,0.00,,---,0.00,VWS V14.00,2013-06-14 00:33:00,
2013-06-13 19:38:00,84.4,56.7,29.74,WNW,292,2.1,3.1,39,0.00,,---,0.00,VWS V14.00,2013-06-14 00:38:00,
2013-06-13 19:43:00,83.5,55.9,29.74,NNW,338,4.1,4.1,39,0.00,,---,0.00,VWS V14.00,2013-06-14 00:43:00,
2013-06-13 19:49:00,82.6,55.1,29.74,WNW,292,2.7,2.7,39,0.00,,---,0.00,VWS V14.00,2013-06-14 00:49:00,
2013-06-13 19:54:00,81.9,55.2,29.74,ENE,68,3.0,3.0,40,0.00,,---,0.00,VWS V14.00,2013-06-14 00:54:00,
2013-06-13 20:00:00,81.3,55.4,29.74,WNW,292,6.9,6.9,41,0.00,,---,0.00,VWS V14.00,2013-06-14 01:00:00,
2013-06-13 20:05:00,80.8,55.6,29.74,WNW,292,3.5,3.5,42,0.00,,---,0.00,VWS V14.00,2013-06-14 01:05:00,
2013-06-13 20:10:00,80.6,55.4,29.74,WNW,292,4.1,4.1,42,0.00,,---,0.00,VWS V14.00,2013-06-14 01:10:00,
2013-06-13 20:15:00,80.1,55.6,29.74,WNW,292,3.5,3.5,43,0.00,,---,0.00,VWS V14.00,2013-06-14 01:15:00,
2013-06-13 20:20:00,79.9,56.0,29.74,NNW,338,2.4,2.5,44,0.00,,---,0.00,VWS V14.00,2013-06-14 01:20:00,
2013-06-13 20:25:00,79.5,55.7,29.74,NW,315,3.5,3.5,44,0.00,,---,0.00,VWS V14.00,2013-06-14 01:25:00,
2013-06-13 20:31:00,79.2,56.0,29.74,NW,315,2.7,2.7,45,0.00,,---,0.00,VWS V14.00,2013-06-14 01:31:00,
2013-06-13 20:36:00,78.8,55.7,29.74,NNW,338,3.5,3.5,45,0.00,,---,0.00,VWS V14.00,2013-06-14 01:36:00,
2013-06-13 20:41:00,78.6,56.1,29.74,North,0,3.0,3.0,46,0.00,,---,0.00,VWS V14.00,2013-06-14 01:41:00,
2013-06-13 20:47:00,78.4,56.6,29.74,NW,315,3.0,3.0,47,0.00,,---,0.00,VWS V14.00,2013-06-14 01:47:00,
2013-06-13 20:52:00,78.3,56.4,29.74,NNW,338,4.1,4.1,47,0.00,,---,0.00,VWS V14.00,2013-06-14 01:52:00,
2013-06-13 20:57:00,78.1,56.8,29.74,NW,315,1.0,2.9,48,0.00,,---,0.00,VWS V14.00,2013-06-14 01:57:00,
2013-06-13 21:02:00,77.9,57.2,29.74,NW,315,4.1,4.1,49,0.00,,---,0.00,VWS V14.00,2013-06-14 02:02:00,
2013-06-13 21:07:00,77.7,57.1,29.74,NNW,338,4.6,4.6,49,0.00,,---,0.00,VWS V14.00,2013-06-14 02:07:00,
2013-06-13 21:13:00,77.5,56.9,29.74,WSW,248,2.4,2.7,49,0.00,,---,0.00,VWS V14.00,2013-06-14 02:13:00,
2013-06-13 21:18:00,77.4,57.3,29.76,North,0,2.7,2.7,50,0.00,,---,0.00,VWS V14.00,2013-06-14 02:18:00,
2013-06-13 21:23:00,77.2,57.1,29.76,NNW,338,2.7,2.7,50,0.00,,---,0.00,VWS V14.00,2013-06-14 02:23:00,
2013-06-13 21:28:00,77.0,57.5,29.76,North,0,3.0,3.8,51,0.00,,---,0.00,VWS V14.00,2013-06-14 02:28:00,
2013-06-13 21:34:00,76.8,57.3,29.76,NNW,338,2.7,2.7,51,0.00,,---,0.00,VWS V14.00,2013-06-14 02:34:00,
2013-06-13 21:39:00,76.6,57.7,29.76,NW,315,2.4,2.4,52,0.00,,---,0.00,VWS V14.00,2013-06-14 02:39:00,
2013-06-13 21:44:00,76.5,58.1,29.76,NW,315,2.7,2.9,53,0.00,,---,0.00,VWS V14.00,2013-06-14 02:44:00,
2013-06-13 21:49:00,76.5,58.1,29.76,North,0,2.4,2.4,53,0.00,,---,0.00,VWS V14.00,2013-06-14 02:49:00,
2013-06-13 21:55:00,76.3,57.9,29.76,North,0,3.5,3.5,53,0.00,,---,0.00,VWS V14.00,2013-06-14 02:55:00,
2013-06-13 22:00:00,75.9,57.6,29.76,North,0,3.0,3.0,53,0.00,,---,0.00,VWS V14.00,2013-06-14 03:00:00,
2013-06-13 22:06:00,75.7,57.4,29.76,North,0,3.0,3.0,53,0.00,,---,0.00,VWS V14.00,2013-06-14 03:06:00,
2013-06-13 22:11:00,75.4,57.6,29.76,North,0,2.4,2.4,54,0.00,,---,0.00,VWS V14.00,2013-06-14 03:11:00,
2013-06-13 22:17:00,75.2,57.4,29.76,North,0,3.0,3.0,54,0.00,,---,0.00,VWS V14.00,2013-06-14 03:17:00,
2013-06-13 22:23:00,74.8,57.6,29.76,North,0,3.5,3.5,55,0.00,,---,0.00,VWS V14.00,2013-06-14 03:23:00,
2013-06-13 22:28:00,74.7,57.9,29.76,North,0,3.0,3.0,56,0.00,,---,0.00,VWS V14.00,2013-06-14 03:28:00,
2013-06-13 22:33:00,74.5,57.8,29.76,North,0,3.0,3.0,56,0.00,,---,0.00,VWS V14.00,2013-06-14 03:33:00,
2013-06-13 22:38:00,74.3,58.1,29.76,NW,315,2.1,2.2,57,0.00,,---,0.00,VWS V14.00,2013-06-14 03:38:00,
2013-06-13 22:44:00,73.9,58.2,29.76,NW,315,1.0,0.0,58,0.00,,---,0.00,VWS V14.00,2013-06-14 03:44:00,
2013-06-13 22:49:00,73.8,58.5,29.76,NNW,338,3.0,3.0,59,0.00,,---,0.00,VWS V14.00,2013-06-14 03:49:00,
2013-06-13 22:54:00,73.6,58.4,29.76,NNW,338,2.4,2.4,59,0.00,,---,0.00,VWS V14.00,2013-06-14 03:54:00,
2013-06-13 23:00:00,73.4,58.7,29.76,NNW,338,2.4,2.4,60,0.00,,---,0.00,VWS V14.00,2013-06-14 04:00:00,
2013-06-13 23:01:00,73.2,58.5,29.76,NNW,338,2.7,2.7,60,0.00,,---,0.00,VWS V14.00,2013-06-14 04:01:00,
2013-06-13 23:02:00,73.2,58.5,29.76,NNW,338,2.4,2.4,60,0.00,,---,0.00,VWS V14.00,2013-06-14 04:02:00,
2013-06-13 23:05:00,73.0,58.8,29.76,NNW,338,1.0,1.3,61,0.00,,---,0.00,VWS V14.00,2013-06-14 04:05:00,
2013-06-13 23:07:00,72.9,58.6,29.76,NNW,338,2.1,2.1,61,0.00,,---,0.00,VWS V14.00,2013-06-14 04:07:00,
2013-06-13 23:10:00,72.9,59.1,29.76,WNW,292,2.4,2.4,62,0.00,,---,0.00,VWS V14.00,2013-06-14 04:10:00,
2013-06-13 23:16:00,72.9,59.1,29.76,WNW,292,1.0,0.0,62,0.00,,---,0.00,VWS V14.00,2013-06-14 04:16:00,
2013-06-13 23:21:00,72.7,58.9,29.76,NW,315,1.0,1.1,62,0.00,,---,0.00,VWS V14.00,2013-06-14 04:21:00,
2013-06-13 23:26:00,72.5,59.2,29.76,NNW,338,2.4,2.4,63,0.00,,---,0.00,VWS V14.00,2013-06-14 04:26:00,
2013-06-13 23:31:00,72.3,59.5,29.76,NNW,338,2.4,2.4,64,0.00,,---,0.00,VWS V14.00,2013-06-14 04:31:00,
2013-06-13 23:36:00,72.0,59.1,29.76,NNW,338,1.0,0.0,64,0.00,,---,0.00,VWS V14.00,2013-06-14 04:36:00,
2013-06-13 23:41:00,71.8,59.4,29.76,NNW,338,1.0,0.0,65,0.00,,---,0.00,VWS V14.00,2013-06-14 04:41:00,
2013-06-13 23:47:00,71.6,59.2,29.76,NW,315,2.7,2.7,65,0.00,,---,0.00,VWS V14.00,2013-06-14 04:47:00,
2013-06-13 23:52:00,71.6,59.7,29.76,NW,315,1.0,1.0,66,0.00,,---,0.00,VWS V14.00,2013-06-14 04:52:00,
2013-06-13 23:57:00,71.4,59.9,29.76,NW,315,1.0,0.0,67,0.00,,---,0.00,VWS V14.00,2013-06-14 04:57:00,